x

Santa Monica Basin - 33nm Wsw Of Santa Monica, Ca (46025) Wave Buoy

1:50pm - Sat 23rd Jul 2016 All times are PDT. -7 hours from GMT.

  • Sig Wave height 3.3ft
  • Swell Direction
  • Peak Period 15s
  • Average Period 6s
  • Wind
    4mph
  • Sea Temp 73°f
  • Air Temp 70°f
  • Sea Pressure 1009.5mb
  • Santa Monica Basin - 33nm Wsw Of Santa Monica, Ca
  • Santa Monica Basin - 33nm Wsw Of Santa Monica, Ca

More Historic Weather Station data

Upgrade to MSW Pro to gain access to the past 30 days of data for over 8000 Wavebouys and Weather Stations around the globe.

Join Pro

Comparision Forecast

View Surf forecast
   
Sat 07/23 1:50pm 3.5ft 15s 6s 4
mph
1009.5mb 73f 70f
12:50pm 3.5ft 15s 6s 7 9 mph 1009.6mb 73f 69f
11:50am 4ft 15s 6s 4 7 mph 1009.7mb 72f 68f
10:50am 4ft 15s 6s 7 9 mph 1010.2mb 72f 67f
9:50am 4.5ft 15s 6s 9 11 mph 1010.2mb 71f 67f
8:50am 5ft 15s  -  9
mph
1010mb 71f 67f
7:50am 4.5ft 15s 6s 7 9 mph 1009.8mb 69f 66f
6:50am 4.5ft 6s 6s 9 11 mph 1009.6mb 68f 66f
5:50am 5ft 16s 7s 9
mph
1009.2mb 68f 66f
4:50am 4.5ft 16s 6s 9 11 mph 1008.8mb 67f 67f
3:50am 4.5ft 6s 6s 7
mph
1008.9mb 67f 66f
2:50am 5.5ft 16s 6s 7 11 mph 1009mb 67f 68f
1:50am 5.5ft 6s 6s 9 11 mph 1009.2mb 66f 68f
12:50am 6.5ft 7s 6s 13 16 mph 1009.8mb 67f 67f
Fri 07/22 11:50pm 6ft 6s 6s 9 11 mph 1009.9mb 67f 69f
10:50pm 6ft 16s 6s 4 7 mph 1009.9mb 68f 70f
9:50pm 5ft 6s 6s 4 9 mph 1009.7mb 69f 73f
8:50pm 5ft 15s 6s 2 4 mph 1009.5mb 69f 69f
7:50pm 4.5ft 16s 6s 4
mph
1009.4mb 69f 70f
6:50pm 4ft 16s 6s 2 4 mph 1009.5mb 69f 70f
5:50pm 4ft 16s 7s 7 9 mph 1009.7mb 69f 71f
4:50pm 3.5ft 15s 7s 4 7 mph 1010.7mb 71f 71f
3:50pm 3ft 14s 7s 7
mph
1011.7mb 71f 71f
2:50pm 3ft 16s 6s 2 4 mph 1012.5mb 71f 70f
1:50pm 2.5ft 15s 6s 7 9 mph 1013.2mb 70f 69f
12:50pm 3ft 16s 6s 7
mph
1013.9mb 70f 68f
10:50am 3.5ft 16s 6s 7
mph
1014.6mb 68f 67f
9:50am 3.5ft 16s 6s 7
mph
1014.5mb 68f 67f
8:50am 3.5ft 16s 6s 4 7 mph 1014.7mb 68f 67f
7:50am 3.5ft 16s 6s 7 9 mph 1014.1mb 68f 67f
6:50am 4ft 15s 6s 9 11 mph 1013.2mb 68f 67f
5:50am 3.5ft 16s 6s 9 11 mph 1012.9mb 69f 67f
4:50am 3.5ft 16s 6s 9 11 mph 1012.9mb 69f 67f
3:50am 3ft 15s 6s 7 9 mph 1012.6mb 68f 67f
2:50am 3.5ft 16s 6s 7 9 mph 1012.3mb 68f 67f
1:50am 3.5ft 17s 5s 9
mph
1012.9mb 68f 68f
12:50am 3.5ft 15s 5s 2 4 mph 1013mb 67f 69f
Thu 07/21 11:50pm 4ft 15s 5s 2 4 mph 1012.9mb 67f 69f
10:50pm 4ft 6s 5s 2
mph
1013mb 68f 68f
9:50pm 4ft 6s 5s 4
mph
1013.3mb 68f 68f
8:50pm 4ft 15s 6s 4
mph
1013mb 69f 68f
7:50pm 3.5ft 17s 5s 2 4 mph 1012.9mb 69f 69f
6:50pm 3.5ft 15s 5s 7 9 mph 1012.9mb 70f 69f
5:50pm 3.5ft 14s 5s 9 11 mph 1013.1mb 70f 70f
4:50pm 3ft 15s 5s 16 18 mph 1013.6mb 71f 69f
3:50pm 3ft 15s 6s 13
mph
1014mb 71f 70f
2:50pm 3ft 17s 6s 11 13 mph 1014.4mb 72f 70f
1:50pm 3ft 15s 6s 7 9 mph 1014.9mb 72f 69f
12:50pm 3.5ft 15s 6s 7
mph
1015.4mb 71f 68f
11:50am 3.5ft 15s 6s 7 9 mph 1015.4mb 71f 67f
10:50am 3.5ft 15s 6s 11
mph
1015.3mb 70f 67f
9:50am 3.5ft 10s 5s 11 13 mph 1014.9mb 70f 67f
8:50am 3.5ft 10s 5s 11 13 mph 1014.8mb 70f 67f
7:50am 4ft 15s 6s 11 13 mph 1014.4mb 70f 67f
6:50am 4ft 7s 6s 7 9 mph 1014mb 70f 67f
5:50am 4ft 15s 6s 7
mph
1013.8mb 70f 67f
4:50am 4ft 15s 6s 7 9 mph 1013.2mb 70f 66f
3:50am 3.5ft 5s 5s 9 11 mph 1013.5mb 70f 66f
2:50am 4ft 16s 6s 2 4 mph 1013.3mb 69f 69f
1:50am 3.5ft 15s 5s 7 9 mph 1013.5mb 69f 69f
12:50am 3.5ft 15s 5s 4 7 mph 1013.8mb 70f 69f
Wed 07/20 11:50pm 4ft 11s 5s 9 11 mph 1013.6mb 70f 69f
10:50pm 4.5ft 11s 5s 9 13 mph 1013.5mb 70f 68f
9:50pm 4.5ft 11s 5s 9 11 mph 1013.5mb 71f 68f
8:50pm 4.5ft 11s 6s 4 9 mph 1013.1mb 71f 70f
7:50pm 4ft 11s 5s 7 9 mph 1013.1mb 72f 70f
6:50pm 3.5ft 16s 5s 16 18 mph 1013mb 72f 69f
5:50pm 3.5ft 11s 5s 13 16 mph 1013.3mb 72f 69f
4:50pm 4ft 11s 7s 18 20 mph 1013.4mb 72f 71f
3:50pm 3.5ft 11s 7s 11 13 mph 1013.9mb 73f 70f
2:50pm 3ft 11s 6s 11
mph
1014.5mb 72f 70f
1:50pm 3.5ft 16s 7s 11 13 mph 1014.6mb 72f 69f
12:50pm 3ft 15s 6s 9
mph
1015mb 72f 69f
11:50am 3.5ft 11s 6s 7 9 mph 1015.3mb 72f 68f
10:50am 3.5ft 11s 6s 9 11 mph 1015.4mb 71f 68f
9:50am 4ft 11s 6s 9 11 mph 1015.2mb 71f 67f
8:50am 4ft 11s 6s 9 11 mph 1015.2mb 71f 67f
7:50am 4.5ft 11s 6s 9 11 mph 1014.9mb 71f 67f
6:50am 4.5ft 11s 7s 4 7 mph 1014.7mb 71f 67f
5:50am 4ft 12s 6s 4 7 mph 1014.3mb 71f 67f
4:50am 4.5ft 12s 7s 2
mph
1014.6mb 71f 67f
3:50am 4.5ft 11s 6s 4 7 mph 1014.5mb 71f 67f
2:50am 4.5ft 12s 6s 7
mph
1014.6mb 71f 68f
1:50am 4.5ft 12s 6s 13 16 mph 1014.7mb 71f 69f
12:50am 4.5ft 12s 6s 11 16 mph 1015mb 71f 69f
Tue 07/19 11:50pm 5.5ft 12s 6s 11 16 mph 1014.8mb 71f 70f
10:50pm 6ft 13s 6s 9 11 mph 1014.7mb 71f 70f